Time;durP1;ratioP1;P1;durP2;ratioP2;P2;SDS_P1;SDS_P2;PMS_P1;PMS_P2;Temp;Humidity;BMP_temperature;BMP_pressure;BME280_temperature;BME280_humidity;BME280_pressure;Samples;Min_cycle;Max_cycle;Signal;HPM_P1;HPM_P2
2020/12/02 00:01:52;;;;;;;4.32;3.92;;;;;;;19.00;47.56;100637.39;;;;-53
2020/12/02 00:04:52;;;;;;;4.42;4.02;;;;;;;18.97;47.59;100629.89;;;;-53
2020/12/02 00:07:52;;;;;;;4.52;4.00;;;;;;;18.94;47.57;100631.55;;;;-53
2020/12/02 00:10:52;;;;;;;4.29;3.89;;;;;;;18.93;47.47;100631.88;;;;-53
2020/12/02 00:13:52;;;;;;;4.25;3.85;;;;;;;18.92;47.59;100625.44;;;;-53
2020/12/02 00:16:52;;;;;;;4.97;4.23;;;;;;;18.88;47.64;100628.55;;;;-56
2020/12/02 00:19:52;;;;;;;4.43;4.03;;;;;;;18.87;47.60;100623.52;;;;-57
2020/12/02 00:22:52;;;;;;;4.43;4.03;;;;;;;18.85;47.61;100628.05;;;;-50
2020/12/02 00:25:52;;;;;;;4.40;4.00;;;;;;;18.83;47.55;100625.83;;;;-57
2020/12/02 00:28:52;;;;;;;4.14;3.74;;;;;;;18.80;47.63;100619.15;;;;-52
2020/12/02 00:31:52;;;;;;;4.29;3.89;;;;;;;18.80;47.70;100617.94;;;;-53
2020/12/02 00:34:52;;;;;;;4.23;3.83;;;;;;;18.77;47.66;100613.95;;;;-53
2020/12/02 00:37:52;;;;;;;4.47;4.07;;;;;;;18.76;47.60;100620.34;;;;-56
2020/12/02 00:40:52;;;;;;;4.63;4.03;;;;;;;18.74;47.56;100619.20;;;;-57
2020/12/02 00:43:52;;;;;;;4.19;3.79;;;;;;;18.73;47.69;100616.98;;;;-51
2020/12/02 00:46:52;;;;;;;3.95;3.59;;;;;;;18.71;47.64;100612.50;;;;-53
2020/12/02 00:49:52;;;;;;;4.16;3.76;;;;;;;18.70;47.62;100615.83;;;;-51
2020/12/02 00:52:52;;;;;;;3.99;3.62;;;;;;;18.67;47.67;100617.16;;;;-53
2020/12/02 00:55:52;;;;;;;4.20;3.79;;;;;;;18.65;47.68;100619.00;;;;-53
2020/12/02 00:58:52;;;;;;;4.09;3.69;;;;;;;18.64;47.68;100619.00;;;;-57
2020/12/02 01:01:52;;;;;;;3.86;3.56;;;;;;;18.62;47.64;100621.00;;;;-54
2020/12/02 01:04:52;;;;;;;4.15;3.75;;;;;;;18.61;47.77;100620.33;;;;-53
2020/12/02 01:07:52;;;;;;;3.93;3.60;;;;;;;18.60;47.74;100616.27;;;;-57
2020/12/02 01:10:52;;;;;;;4.09;3.70;;;;;;;18.57;47.77;100613.89;;;;-53
2020/12/02 01:13:52;;;;;;;4.37;3.71;;;;;;;18.55;47.70;100612.70;;;;-53
2020/12/02 01:16:52;;;;;;;4.10;3.70;;;;;;;18.54;47.78;100613.68;;;;-57
2020/12/02 01:19:52;;;;;;;4.06;3.69;;;;;;;18.52;47.71;100612.11;;;;-57
2020/12/02 01:22:52;;;;;;;3.84;3.54;;;;;;;18.51;47.81;100610.56;;;;-53
2020/12/02 01:25:52;;;;;;;4.11;3.71;;;;;;;18.49;47.86;100617.98;;;;-57
2020/12/02 01:28:52;;;;;;;4.06;3.60;;;;;;;18.47;47.71;100616.44;;;;-57
2020/12/02 01:31:52;;;;;;;3.85;3.47;;;;;;;18.46;47.74;100620.23;;;;-53
2020/12/02 01:34:52;;;;;;;3.95;3.59;;;;;;;18.45;47.77;100625.50;;;;-53
2020/12/02 01:37:52;;;;;;;4.18;3.78;;;;;;;18.43;47.80;100626.37;;;;-54
2020/12/02 01:40:52;;;;;;;4.07;3.67;;;;;;;18.42;47.84;100622.52;;;;-54
2020/12/02 01:43:52;;;;;;;4.01;3.63;;;;;;;18.40;47.86;100617.79;;;;-53
2020/12/02 01:46:52;;;;;;;4.18;3.78;;;;;;;18.39;47.92;100617.30;;;;-53
2020/12/02 01:49:52;;;;;;;3.93;3.62;;;;;;;18.37;47.83;100622.72;;;;-53
2020/12/02 01:52:52;;;;;;;3.74;3.43;;;;;;;18.37;47.80;100621.34;;;;-51
2020/12/02 01:55:52;;;;;;;4.18;3.78;;;;;;;18.35;47.82;100626.41;;;;-50
2020/12/02 01:58:52;;;;;;;3.72;3.41;;;;;;;18.33;47.84;100626.31;;;;-54
2020/12/02 02:01:52;;;;;;;3.78;3.45;;;;;;;18.32;47.94;100630.74;;;;-53
2020/12/02 02:04:52;;;;;;;3.96;3.60;;;;;;;18.31;47.95;100624.09;;;;-53
2020/12/02 02:07:52;;;;;;;4.03;3.44;;;;;;;18.30;47.80;100618.55;;;;-56
2020/12/02 02:10:52;;;;;;;3.77;3.47;;;;;;;18.29;47.95;100615.46;;;;-58
2020/12/02 02:13:52;;;;;;;4.36;3.64;;;;;;;18.27;47.89;100613.56;;;;-57
2020/12/02 02:16:52;;;;;;;4.05;3.65;;;;;;;18.26;47.80;100612.43;;;;-57
2020/12/02 02:19:52;;;;;;;3.89;3.59;;;;;;;18.26;47.83;100616.86;;;;-56
2020/12/02 02:22:52;;;;;;;3.68;3.32;;;;;;;18.24;47.96;100615.81;;;;-51
2020/12/02 02:25:52;;;;;;;3.83;3.53;;;;;;;18.23;47.96;100611.16;;;;-53
2020/12/02 02:28:52;;;;;;;3.75;3.39;;;;;;;18.22;48.02;100611.48;;;;-51
2020/12/02 02:31:52;;;;;;;3.79;3.49;;;;;;;18.21;48.06;100605.20;;;;-53
2020/12/02 02:34:52;;;;;;;3.96;3.62;;;;;;;18.21;47.94;100597.50;;;;-57
2020/12/02 02:37:52;;;;;;;4.34;3.93;;;;;;;18.19;47.90;100594.63;;;;-57
2020/12/02 02:40:52;;;;;;;3.53;3.18;;;;;;;18.18;47.98;100596.34;;;;-57
2020/12/02 02:43:52;;;;;;;3.72;3.42;;;;;;;18.17;47.89;100593.80;;;;-53
2020/12/02 02:46:52;;;;;;;3.90;3.57;;;;;;;18.16;47.91;100593.55;;;;-52
2020/12/02 02:49:52;;;;;;;3.62;3.32;;;;;;;18.15;47.89;100589.55;;;;-51
2020/12/02 02:52:52;;;;;;;4.34;3.66;;;;;;;18.14;47.96;100590.60;;;;-58
2020/12/02 02:55:52;;;;;;;3.61;3.31;;;;;;;18.13;48.04;100594.47;;;;-53
2020/12/02 02:58:52;;;;;;;3.75;3.40;;;;;;;18.12;47.79;100596.25;;;;-55
2020/12/02 03:01:52;;;;;;;3.94;3.62;;;;;;;18.11;47.99;100589.00;;;;-55
2020/12/02 03:04:52;;;;;;;3.92;3.52;;;;;;;18.10;47.97;100591.19;;;;-54
2020/12/02 03:07:52;;;;;;;3.92;3.53;;;;;;;18.10;47.81;100591.44;;;;-57
2020/12/02 03:10:52;;;;;;;3.65;3.35;;;;;;;18.08;48.01;100586.70;;;;-54
2020/12/02 03:13:52;;;;;;;3.90;3.50;;;;;;;18.07;48.01;100587.24;;;;-53
2020/12/02 03:16:52;;;;;;;3.77;3.47;;;;;;;18.06;47.83;100582.95;;;;-53
2020/12/02 03:19:52;;;;;;;3.72;3.41;;;;;;;18.05;48.02;100583.43;;;;-53
2020/12/02 03:22:52;;;;;;;3.57;3.27;;;;;;;18.03;47.91;100581.50;;;;-53
2020/12/02 03:25:52;;;;;;;3.49;3.19;;;;;;;18.03;47.92;100586.05;;;;-53
2020/12/02 03:28:53;;;;;;;3.79;3.49;;;;;;;18.02;47.93;100589.05;;;;-53
2020/12/02 03:31:52;;;;;;;3.85;3.45;;;;;;;18.00;47.88;100590.48;;;;-52
2020/12/02 03:34:52;;;;;;;3.62;3.32;;;;;;;18.01;47.86;100588.29;;;;-53
2020/12/02 03:37:52;;;;;;;3.58;3.28;;;;;;;17.98;47.94;100584.61;;;;-53
2020/12/02 03:40:52;;;;;;;3.66;3.35;;;;;;;17.97;47.86;100588.31;;;;-53
2020/12/02 03:43:52;;;;;;;3.71;3.41;;;;;;;17.97;48.02;100586.20;;;;-55
2020/12/02 03:46:52;;;;;;;3.62;3.32;;;;;;;17.96;47.90;100586.13;;;;-51
2020/12/02 03:49:52;;;;;;;3.65;3.35;;;;;;;17.95;47.91;100588.36;;;;-51
2020/12/02 03:52:52;;;;;;;3.31;3.01;;;;;;;17.94;47.96;100581.39;;;;-57
2020/12/02 03:55:52;;;;;;;3.81;3.51;;;;;;;17.93;47.96;100580.34;;;;-53
2020/12/02 03:58:52;;;;;;;3.29;2.99;;;;;;;17.92;47.92;100579.09;;;;-56
2020/12/02 04:01:52;;;;;;;3.49;3.19;;;;;;;17.91;48.08;100577.47;;;;-57
2020/12/02 04:04:52;;;;;;;3.71;3.40;;;;;;;17.90;47.94;100574.27;;;;-57
2020/12/02 04:07:52;;;;;;;3.58;3.28;;;;;;;17.89;47.92;100572.57;;;;-53
2020/12/02 04:10:52;;;;;;;3.65;3.35;;;;;;;17.89;47.95;100573.87;;;;-57
2020/12/02 04:13:52;;;;;;;3.66;3.36;;;;;;;17.87;47.94;100574.89;;;;-56
2020/12/02 04:16:52;;;;;;;3.49;3.19;;;;;;;17.86;48.06;100579.89;;;;-54
2020/12/02 04:19:52;;;;;;;3.72;3.42;;;;;;;17.86;48.09;100575.75;;;;-57
2020/12/02 04:22:52;;;;;;;3.29;2.99;;;;;;;17.85;48.00;100580.21;;;;-57
2020/12/02 04:25:52;;;;;;;3.64;3.34;;;;;;;17.85;47.94;100576.23;;;;-57
2020/12/02 04:28:52;;;;;;;3.83;3.27;;;;;;;17.84;47.99;100571.42;;;;-53
2020/12/02 04:31:52;;;;;;;3.42;3.12;;;;;;;17.84;48.03;100572.64;;;;-52
2020/12/02 04:34:52;;;;;;;3.40;3.10;;;;;;;17.83;48.13;100577.59;;;;-53
2020/12/02 04:37:52;;;;;;;3.47;3.17;;;;;;;17.82;48.09;100575.91;;;;-51
2020/12/02 04:40:52;;;;;;;3.55;3.25;;;;;;;17.81;48.08;100574.53;;;;-54
2020/12/02 04:43:52;;;;;;;3.61;3.31;;;;;;;17.81;48.13;100573.95;;;;-53
2020/12/02 04:46:52;;;;;;;3.43;3.13;;;;;;;17.80;48.03;100574.81;;;;-57
2020/12/02 04:49:52;;;;;;;6.71;6.01;;;;;;;17.61;45.15;100574.77;;;;-48
2020/12/02 04:52:52;;;;;;;10.20;6.87;;;;;;;17.38;44.41;100575.54;;;;-53
2020/12/02 04:55:52;;;;;;;7.81;6.69;;;;;;;17.33;44.77;100575.06;;;;-56
2020/12/02 04:58:52;;;;;;;8.14;7.34;;;;;;;17.26;44.45;100576.86;;;;-55
2020/12/02 05:01:52;;;;;;;8.37;7.11;;;;;;;17.22;44.20;100577.77;;;;-55
2020/12/02 05:04:52;;;;;;;8.42;7.49;;;;;;;17.17;44.19;100580.05;;;;-55
2020/12/02 05:07:52;;;;;;;8.65;7.47;;;;;;;17.13;44.04;100577.05;;;;-55
2020/12/02 05:10:52;;;;;;;8.53;7.21;;;;;;;17.07;43.87;100575.32;;;;-55
2020/12/02 05:13:52;;;;;;;9.20;7.49;;;;;;;17.01;43.76;100576.18;;;;-55
2020/12/02 05:16:52;;;;;;;9.21;7.47;;;;;;;16.94;43.57;100575.17;;;;-55
2020/12/02 05:19:52;;;;;;;8.06;7.09;;;;;;;16.91;43.67;100578.74;;;;-55
2020/12/02 05:22:52;;;;;;;8.51;7.64;;;;;;;16.86;43.43;100575.09;;;;-55
2020/12/02 05:25:52;;;;;;;9.55;7.56;;;;;;;16.88;43.82;100574.66;;;;-51
2020/12/02 05:28:52;;;;;;;7.08;6.38;;;;;;;16.99;44.64;100571.61;;;;-51
2020/12/02 05:31:52;;;;;;;7.03;6.08;;;;;;;17.07;45.06;100572.56;;;;-52
2020/12/02 05:34:52;;;;;;;11.05;5.85;;;;;;;17.10;45.25;100570.34;;;;-52
2020/12/02 05:37:52;;;;;;;6.96;5.53;;;;;;;17.12;45.26;100576.00;;;;-51
2020/12/02 05:40:52;;;;;;;6.09;5.23;;;;;;;17.14;45.48;100578.75;;;;-52
2020/12/02 05:43:52;;;;;;;6.24;5.22;;;;;;;17.15;45.64;100583.00;;;;-54
2020/12/02 05:46:52;;;;;;;5.81;5.20;;;;;;;17.15;45.73;100582.35;;;;-51
2020/12/02 05:49:52;;;;;;;5.67;5.08;;;;;;;17.17;45.79;100581.17;;;;-55
2020/12/02 05:52:52;;;;;;;5.51;4.68;;;;;;;17.18;45.84;100586.03;;;;-52
2020/12/02 05:55:52;;;;;;;5.27;4.77;;;;;;;17.18;45.90;100581.83;;;;-52
2020/12/02 05:58:52;;;;;;;5.11;4.58;;;;;;;17.18;46.01;100583.96;;;;-52
2020/12/02 06:01:52;;;;;;;4.93;4.43;;;;;;;17.19;46.02;100577.81;;;;-52
2020/12/02 06:04:52;;;;;;;5.39;4.58;;;;;;;17.20;46.15;100578.38;;;;-51
2020/12/02 06:07:52;;;;;;;4.75;4.23;;;;;;;17.20;46.15;100568.61;;;;-52
2020/12/02 06:10:53;;;;;;;4.59;4.03;;;;;;;17.20;46.31;100571.90;;;;-52
2020/12/02 06:13:52;;;;;;;4.43;4.00;;;;;;;17.20;46.31;100572.06;;;;-51
2020/12/02 06:16:52;;;;;;;4.73;4.24;;;;;;;17.20;46.33;100566.72;;;;-52
2020/12/02 06:19:52;;;;;;;4.35;3.94;;;;;;;17.22;46.39;100565.94;;;;-52
2020/12/02 06:22:52;;;;;;;4.50;4.10;;;;;;;17.23;46.44;100560.47;;;;-52
2020/12/02 06:25:52;;;;;;;4.17;3.77;;;;;;;17.26;46.37;100558.64;;;;-52
2020/12/02 06:28:52;;;;;;;4.31;3.76;;;;;;;17.27;46.41;100552.36;;;;-52
2020/12/02 06:31:52;;;;;;;3.77;3.43;;;;;;;17.31;46.57;100555.91;;;;-52
2020/12/02 06:34:52;;;;;;;4.37;3.95;;;;;;;17.33;46.76;100560.64;;;;-55
2020/12/02 06:37:52;;;;;;;4.16;3.76;;;;;;;17.36;46.87;100559.06;;;;-51
2020/12/02 06:40:52;;;;;;;3.97;3.60;;;;;;;17.40;46.86;100566.42;;;;-51
2020/12/02 06:43:52;;;;;;;3.84;3.47;;;;;;;17.43;46.99;100559.08;;;;-52
2020/12/02 06:46:52;;;;;;;3.71;3.35;;;;;;;17.47;46.96;100563.55;;;;-51
2020/12/02 06:49:52;;;;;;;3.95;3.55;;;;;;;17.51;46.98;100568.53;;;;-52
2020/12/02 06:52:52;;;;;;;3.91;3.50;;;;;;;17.55;46.98;100567.22;;;;-52
2020/12/02 06:55:52;;;;;;;3.61;3.24;;;;;;;17.59;47.05;100570.13;;;;-52
2020/12/02 06:58:52;;;;;;;3.69;3.39;;;;;;;17.63;47.06;100575.21;;;;-52
2020/12/02 07:01:52;;;;;;;3.67;3.19;;;;;;;17.66;47.13;100570.17;;;;-52
2020/12/02 07:04:52;;;;;;;3.64;3.34;;;;;;;17.70;47.09;100572.31;;;;-52
2020/12/02 07:07:52;;;;;;;3.53;3.23;;;;;;;17.72;47.13;100570.72;;;;-51
2020/12/02 07:10:52;;;;;;;3.56;3.26;;;;;;;17.75;47.10;100567.46;;;;-52
2020/12/02 07:13:52;;;;;;;3.39;3.09;;;;;;;17.78;47.17;100569.36;;;;-51
2020/12/02 07:16:52;;;;;;;3.45;3.15;;;;;;;17.80;47.17;100562.91;;;;-52
2020/12/02 07:19:53;;;;;;;3.39;3.09;;;;;;;17.81;47.12;100559.53;;;;-52
2020/12/02 07:22:52;;;;;;;3.62;3.20;;;;;;;17.82;47.17;100590.66;;;;-52
2020/12/02 07:25:52;;;;;;;3.28;2.99;;;;;;;17.83;47.19;100558.78;;;;-52
2020/12/02 07:28:52;;;;;;;3.51;3.21;;;;;;;17.84;47.20;100555.13;;;;-52
2020/12/02 07:31:52;;;;;;;3.59;3.29;;;;;;;17.85;47.18;100557.27;;;;-52
2020/12/02 07:34:52;;;;;;;3.41;3.11;;;;;;;17.86;47.20;100554.92;;;;-52
2020/12/02 07:37:52;;;;;;;3.29;2.99;;;;;;;17.86;47.21;100556.45;;;;-52
2020/12/02 07:40:52;;;;;;;3.31;3.01;;;;;;;17.87;47.19;100554.06;;;;-53
2020/12/02 07:43:52;;;;;;;3.31;3.00;;;;;;;17.87;47.25;100549.11;;;;-55
2020/12/02 07:46:52;;;;;;;3.23;2.93;;;;;;;17.87;47.26;100545.55;;;;-55
2020/12/02 07:49:52;;;;;;;3.02;2.77;;;;;;;17.87;47.31;100545.47;;;;-55
2020/12/02 07:52:52;;;;;;;3.35;3.05;;;;;;;17.86;47.29;100546.81;;;;-55
2020/12/02 07:55:52;;;;;;;3.31;3.01;;;;;;;17.87;47.32;100548.14;;;;-54
2020/12/02 07:58:54;;;;;;;3.13;2.85;;;;;;;17.87;47.34;100554.55;;;;-55
2020/12/02 08:01:52;;;;;;;3.00;2.80;;;;;;;17.86;47.31;100549.81;;;;-55
2020/12/02 08:04:52;;;;;;;3.41;3.11;;;;;;;17.86;47.32;100543.24;;;;-51
2020/12/02 08:07:52;;;;;;;3.23;2.96;;;;;;;17.87;47.39;100547.09;;;;-52
2020/12/02 08:10:53;;;;;;;3.20;2.90;;;;;;;17.86;47.36;100541.95;;;;-52
2020/12/02 08:13:52;;;;;;;3.48;3.18;;;;;;;17.86;47.32;100544.70;;;;-52
2020/12/02 08:16:53;;;;;;;3.09;2.81;;;;;;;17.86;47.22;100545.43;;;;-52
2020/12/02 08:19:52;;;;;;;3.25;2.95;;;;;;;17.86;47.16;100547.95;;;;-52
2020/12/02 08:22:52;;;;;;;3.27;2.97;;;;;;;17.87;47.24;100546.11;;;;-52
2020/12/02 08:25:52;;;;;;;3.33;2.99;;;;;;;17.86;47.31;100543.57;;;;-52
2020/12/02 08:28:52;;;;;;;3.05;2.78;;;;;;;17.86;47.08;100539.67;;;;-52
2020/12/02 08:31:52;;;;;;;3.27;2.97;;;;;;;17.86;47.23;100543.24;;;;-52
2020/12/02 08:34:52;;;;;;;3.37;3.07;;;;;;;17.87;47.10;100543.84;;;;-52
2020/12/02 08:37:52;;;;;;;3.29;2.99;;;;;;;17.86;47.10;100549.24;;;;-52
2020/12/02 08:40:52;;;;;;;3.24;2.94;;;;;;;17.86;47.09;100551.43;;;;-55
2020/12/02 08:43:52;;;;;;;3.23;2.93;;;;;;;17.85;47.04;100553.95;;;;-53
2020/12/02 08:46:52;;;;;;;3.24;2.93;;;;;;;17.85;47.05;100554.67;;;;-51
2020/12/02 08:49:52;;;;;;;3.26;2.96;;;;;;;17.85;46.97;100554.19;;;;-52
2020/12/02 08:52:52;;;;;;;3.19;2.89;;;;;;;17.85;47.12;100558.48;;;;-52
2020/12/02 08:55:52;;;;;;;2.99;2.79;;;;;;;17.85;47.00;100556.22;;;;-52
2020/12/02 08:58:52;;;;;;;3.05;2.75;;;;;;;17.85;46.94;100553.14;;;;-52
2020/12/02 09:01:52;;;;;;;3.07;2.77;;;;;;;17.85;46.91;100556.63;;;;-52
2020/12/02 09:04:52;;;;;;;5.50;3.11;;;;;;;17.84;47.18;100557.97;;;;-55
2020/12/02 09:07:52;;;;;;;3.45;3.01;;;;;;;17.85;47.29;100554.35;;;;-54
2020/12/02 09:10:52;;;;;;;3.71;3.04;;;;;;;17.85;47.20;100554.35;;;;-53
2020/12/02 09:13:52;;;;;;;3.69;3.26;;;;;;;17.86;47.34;100557.84;;;;-53
2020/12/02 09:16:52;;;;;;;4.07;3.10;;;;;;;17.87;47.16;100551.46;;;;-52
2020/12/02 09:19:52;;;;;;;5.09;3.45;;;;;;;17.89;47.26;100551.01;;;;-52
2020/12/02 09:22:52;;;;;;;4.69;3.32;;;;;;;17.91;47.30;100550.39;;;;-54
2020/12/02 09:25:52;;;;;;;5.60;3.13;;;;;;;17.95;47.38;100551.80;;;;-54
2020/12/02 09:28:52;;;;;;;4.29;3.27;;;;;;;18.04;47.54;100552.83;;;;-49
2020/12/02 09:31:52;;;;;;;6.43;3.20;;;;;;;18.06;47.42;100547.18;;;;-49
2020/12/02 09:34:52;;;;;;;3.95;3.07;;;;;;;18.10;47.36;100544.97;;;;-49
2020/12/02 09:37:52;;;;;;;7.31;3.40;;;;;;;18.12;47.50;100542.97;;;;-53
2020/12/02 09:40:52;;;;;;;8.69;4.32;;;;;;;18.12;46.35;100541.67;;;;-55
2020/12/02 09:43:52;;;;;;;6.83;4.38;;;;;;;18.13;46.20;100541.02;;;;-54
2020/12/02 09:46:52;;;;;;;6.29;4.44;;;;;;;18.14;46.37;100532.69;;;;-53
2020/12/02 09:49:52;;;;;;;5.59;3.95;;;;;;;18.15;46.38;100530.17;;;;-51
2020/12/02 09:52:52;;;;;;;4.89;3.82;;;;;;;18.17;46.24;100525.34;;;;-52
2020/12/02 09:55:52;;;;;;;5.23;3.92;;;;;;;18.22;46.12;100524.91;;;;-58
2020/12/02 09:58:52;;;;;;;6.03;3.81;;;;;;;18.26;46.46;100519.95;;;;-57
2020/12/02 10:01:52;;;;;;;5.51;3.31;;;;;;;18.31;46.71;100512.95;;;;-58
2020/12/02 10:04:52;;;;;;;5.98;3.43;;;;;;;18.35;46.82;100508.13;;;;-56
2020/12/02 10:09:52;;;;;;;4.53;3.25;;;;;;;18.41;46.88;100504.92;;;;-55
2020/12/02 10:13:52;;;;;;;5.65;3.45;;;;;;;18.50;47.43;100503.75;;;;-47
2020/12/02 10:16:52;;;;;;;5.34;3.21;;;;;;;18.54;47.51;100498.52;;;;-49
2020/12/02 10:19:52;;;;;;;4.27;3.34;;;;;;;18.60;47.58;100497.36;;;;-50
2020/12/02 10:22:52;;;;;;;4.73;3.32;;;;;;;18.63;47.64;100490.80;;;;-58
2020/12/02 10:26:52;;;;;;;4.07;3.10;;;;;;;18.71;47.82;100489.27;;;;-55
2020/12/02 10:29:52;;;;;;;5.66;3.46;;;;;;;18.75;47.60;100482.41;;;;-53
2020/12/02 10:32:52;;;;;;;6.08;3.37;;;;;;;18.79;47.74;100477.86;;;;-52
2020/12/02 10:35:52;;;;;;;3.85;3.21;;;;;;;18.83;47.71;100477.97;;;;-57
2020/12/02 10:38:52;;;;;;;3.84;3.28;;;;;;;18.86;47.64;100470.11;;;;-51
2020/12/02 10:41:52;;;;;;;3.68;3.09;;;;;;;18.89;47.73;100468.53;;;;-59
2020/12/02 10:44:52;;;;;;;4.05;3.19;;;;;;;18.92;47.78;100462.94;;;;-59
2020/12/02 10:47:52;;;;;;;4.20;3.25;;;;;;;18.97;47.68;100457.08;;;;-53
2020/12/02 10:50:52;;;;;;;5.13;2.92;;;;;;;18.97;47.44;100452.44;;;;-53
2020/12/02 10:53:52;;;;;;;4.80;3.11;;;;;;;18.97;47.43;100447.73;;;;-54
2020/12/02 10:56:52;;;;;;;3.79;3.13;;;;;;;19.00;47.34;100442.31;;;;-54
2020/12/02 10:59:52;;;;;;;4.04;3.30;;;;;;;19.01;47.32;100439.48;;;;-54
2020/12/02 11:02:52;;;;;;;4.53;2.92;;;;;;;19.02;47.33;100434.69;;;;-54
2020/12/02 11:05:52;;;;;;;4.06;2.99;;;;;;;19.03;47.33;100428.78;;;;-54
2020/12/02 11:08:52;;;;;;;3.48;3.15;;;;;;;19.05;47.27;100422.78;;;;-54
2020/12/02 11:11:52;;;;;;;4.75;3.02;;;;;;;19.07;47.23;100420.05;;;;-54
2020/12/02 11:14:52;;;;;;;3.56;3.05;;;;;;;19.09;47.26;100415.23;;;;-54
2020/12/02 11:17:53;;;;;;;3.33;2.93;;;;;;;19.11;47.21;100407.86;;;;-54
2020/12/02 11:20:52;;;;;;;3.93;2.89;;;;;;;19.13;47.19;100404.38;;;;-54
2020/12/02 11:23:52;;;;;;;4.47;3.19;;;;;;;19.14;47.20;100402.45;;;;-54
2020/12/02 11:26:52;;;;;;;4.57;3.13;;;;;;;19.16;47.23;100401.41;;;;-54
2020/12/02 11:29:52;;;;;;;3.35;2.97;;;;;;;19.17;47.20;100395.15;;;;-55
2020/12/02 11:32:54;;;;;;;3.57;3.22;;;;;;;19.16;46.62;100395.56;;;;-51
2020/12/02 11:36:52;;;;;;;5.77;4.07;;;;;;;19.12;45.97;100391.47;;;;-52
2020/12/02 11:39:52;;;;;;;6.45;3.78;;;;;;;19.11;46.02;100383.09;;;;-48
2020/12/02 11:42:52;;;;;;;4.34;3.80;;;;;;;19.09;46.06;100381.53;;;;-52
2020/12/02 11:45:52;;;;;;;5.31;3.99;;;;;;;19.08;46.17;100376.50;;;;-62
2020/12/02 11:48:52;;;;;;;5.73;4.02;;;;;;;19.06;46.32;100373.07;;;;-48
2020/12/02 11:51:52;;;;;;;5.12;3.99;;;;;;;19.09;46.33;100362.27;;;;-53
2020/12/02 11:54:54;;;;;;;7.15;3.83;;;;;;;19.13;46.23;100361.27;;;;-53
2020/12/02 11:57:52;;;;;;;4.96;3.55;;;;;;;19.17;46.36;100352.75;;;;-53
2020/12/02 12:00:52;;;;;;;4.37;3.41;;;;;;;19.20;46.46;100351.80;;;;-53
2020/12/02 12:03:52;;;;;;;4.95;3.25;;;;;;;19.22;46.53;100349.55;;;;-53
2020/12/02 12:06:52;;;;;;;5.19;3.45;;;;;;;19.24;46.56;100349.55;;;;-53
2020/12/02 12:09:52;;;;;;;3.47;3.10;;;;;;;19.26;46.53;100343.47;;;;-53
2020/12/02 12:12:52;;;;;;;3.86;3.25;;;;;;;19.29;46.60;100344.61;;;;-53
2020/12/02 12:15:52;;;;;;;4.20;3.40;;;;;;;19.32;46.58;100335.03;;;;-54
2020/12/02 12:18:52;;;;;;;3.57;3.14;;;;;;;19.32;46.58;100331.62;;;;-53
2020/12/02 12:21:52;;;;;;;3.26;2.96;;;;;;;19.34;46.58;100327.16;;;;-53
2020/12/02 12:24:52;;;;;;;4.50;3.25;;;;;;;19.36;46.59;100327.73;;;;-54
2020/12/02 12:27:52;;;;;;;4.78;3.16;;;;;;;19.35;46.62;100322.54;;;;-54
2020/12/02 12:30:52;;;;;;;4.09;3.27;;;;;;;19.36;46.58;100320.45;;;;-53
2020/12/02 12:33:52;;;;;;;4.29;3.11;;;;;;;19.38;46.64;100317.34;;;;-49
2020/12/02 12:36:52;;;;;;;4.55;3.21;;;;;;;19.44;46.68;100318.59;;;;-52
2020/12/02 12:39:52;;;;;;;3.79;3.13;;;;;;;19.46;46.95;100316.97;;;;-46
2020/12/02 12:42:54;;;;;;;4.43;3.37;;;;;;;19.49;46.85;100316.11;;;;-52
2020/12/02 12:45:52;;;;;;;4.05;3.24;;;;;;;19.51;47.06;100314.25;;;;-49
2020/12/02 12:48:52;;;;;;;3.65;3.23;;;;;;;19.54;47.06;100306.77;;;;-54
2020/12/02 12:51:52;;;;;;;3.55;3.09;;;;;;;19.57;46.95;100307.09;;;;-52
2020/12/02 12:54:52;;;;;;;4.11;3.25;;;;;;;19.59;46.99;100304.69;;;;-54
2020/12/02 12:57:52;;;;;;;3.53;3.23;;;;;;;19.61;47.00;100302.48;;;;-51
2020/12/02 13:00:52;;;;;;;3.95;3.23;;;;;;;19.64;46.83;100300.88;;;;-57
2020/12/02 13:03:52;;;;;;;5.07;3.03;;;;;;;19.63;46.83;100297.55;;;;-56
2020/12/02 13:06:52;;;;;;;4.92;3.16;;;;;;;19.65;46.81;100302.84;;;;-56
2020/12/02 13:09:53;;;;;;;4.66;3.24;;;;;;;19.65;46.70;100300.48;;;;-54
2020/12/02 13:12:52;;;;;;;4.27;2.93;;;;;;;19.67;46.80;100304.04;;;;-57
2020/12/02 13:15:52;;;;;;;3.18;2.87;;;;;;;19.67;46.67;100301.06;;;;-56
2020/12/02 13:18:52;;;;;;;3.31;2.92;;;;;;;19.67;46.72;100295.94;;;;-53
2020/12/02 13:21:52;;;;;;;4.73;3.14;;;;;;;19.69;46.66;100299.25;;;;-56
2020/12/02 13:24:52;;;;;;;3.20;2.90;;;;;;;19.69;46.72;100294.37;;;;-54
2020/12/02 13:27:52;;;;;;;2.91;2.71;;;;;;;19.69;46.71;100286.67;;;;-54
2020/12/02 13:30:52;;;;;;;2.96;2.74;;;;;;;19.71;46.71;100283.76;;;;-54
2020/12/02 13:33:52;;;;;;;3.48;3.05;;;;;;;19.71;46.64;100282.38;;;;-54
2020/12/02 13:36:52;;;;;;;3.24;2.92;;;;;;;19.73;46.61;100278.89;;;;-54
2020/12/02 13:39:52;;;;;;;3.27;2.93;;;;;;;19.73;46.66;100279.61;;;;-57
2020/12/02 13:42:52;;;;;;;3.41;2.71;;;;;;;19.75;46.65;100279.14;;;;-57
2020/12/02 13:45:52;;;;;;;3.45;2.80;;;;;;;19.75;46.63;100275.64;;;;-57
2020/12/02 13:48:52;;;;;;;3.10;2.80;;;;;;;19.75;46.64;100274.66;;;;-57
2020/12/02 13:51:52;;;;;;;3.10;2.81;;;;;;;19.76;46.66;100273.71;;;;-57
2020/12/02 13:54:52;;;;;;;3.20;2.90;;;;;;;19.77;46.59;100276.05;;;;-53
2020/12/02 13:57:52;;;;;;;3.48;2.71;;;;;;;19.79;46.47;100277.92;;;;-53
2020/12/02 14:00:52;;;;;;;3.09;2.75;;;;;;;19.79;46.48;100276.70;;;;-53
2020/12/02 14:03:52;;;;;;;3.15;2.85;;;;;;;19.80;46.53;100278.92;;;;-54
2020/12/02 14:06:52;;;;;;;3.22;2.91;;;;;;;19.81;46.58;100275.91;;;;-53
2020/12/02 14:09:52;;;;;;;3.29;2.99;;;;;;;19.81;46.46;100274.84;;;;-54
2020/12/02 14:12:52;;;;;;;3.05;2.75;;;;;;;19.83;46.54;100277.61;;;;-54
2020/12/02 14:15:52;;;;;;;3.05;2.77;;;;;;;19.83;46.58;100279.00;;;;-52
2020/12/02 14:18:52;;;;;;;2.97;2.74;;;;;;;19.84;46.42;100280.61;;;;-54
2020/12/02 14:21:52;;;;;;;2.87;2.59;;;;;;;19.83;46.48;100273.22;;;;-54
2020/12/02 14:24:52;;;;;;;3.16;2.78;;;;;;;19.84;46.61;100276.65;;;;-54
2020/12/02 14:27:52;;;;;;;3.13;2.82;;;;;;;19.85;46.46;100274.29;;;;-54
2020/12/02 14:30:52;;;;;;;3.07;2.76;;;;;;;19.85;46.50;100273.63;;;;-54
2020/12/02 14:33:52;;;;;;;3.70;2.92;;;;;;;19.89;46.39;100272.75;;;;-51
2020/12/02 14:36:52;;;;;;;3.17;2.78;;;;;;;19.92;46.61;100266.40;;;;-53
2020/12/02 14:39:52;;;;;;;2.87;2.60;;;;;;;19.94;46.76;100266.56;;;;-47
2020/12/02 14:42:52;;;;;;;3.60;2.65;;;;;;;19.96;46.73;100265.67;;;;-57
2020/12/02 14:45:52;;;;;;;4.19;2.83;;;;;;;19.98;46.76;100266.02;;;;-57
2020/12/02 14:48:52;;;;;;;3.43;2.83;;;;;;;20.02;46.55;100265.36;;;;-52
2020/12/02 14:51:52;;;;;;;4.33;2.69;;;;;;;20.03;46.58;100259.52;;;;-56
2020/12/02 14:54:52;;;;;;;2.80;2.56;;;;;;;20.05;46.67;100259.11;;;;-54
2020/12/02 14:57:52;;;;;;;7.98;2.75;;;;;;;20.05;46.58;100260.08;;;;-59
2020/12/02 15:00:52;;;;;;;4.29;2.75;;;;;;;20.06;46.65;100258.36;;;;-59
2020/12/02 15:03:52;;;;;;;3.58;2.65;;;;;;;20.09;46.65;100262.61;;;;-58
2020/12/02 15:06:52;;;;;;;4.56;2.73;;;;;;;20.11;46.81;100265.22;;;;-58
2020/12/02 15:09:52;;;;;;;2.99;2.70;;;;;;;20.13;46.92;100258.47;;;;-60
2020/12/02 15:12:52;;;;;;;4.44;2.67;;;;;;;20.14;47.02;100259.42;;;;-52
2020/12/02 15:15:52;;;;;;;3.93;2.79;;;;;;;20.16;47.03;100260.81;;;;-53
2020/12/02 15:18:52;;;;;;;3.01;2.75;;;;;;;20.19;46.92;100262.86;;;;-57
2020/12/02 15:21:53;;;;;;;4.35;2.71;;;;;;;20.19;46.69;100260.88;;;;-58
2020/12/02 15:24:52;;;;;;;3.24;2.84;;;;;;;20.21;46.57;100256.73;;;;-60
2020/12/02 15:27:52;;;;;;;3.02;2.71;;;;;;;20.21;46.45;100255.19;;;;-52
2020/12/02 15:30:52;;;;;;;3.45;2.87;;;;;;;20.21;46.44;100250.80;;;;-52
2020/12/02 15:49:26;;;;;;;2.91;2.61;;;;;;;20.27;46.10;100243.22;;;;-60
2020/12/02 15:52:26;;;;;;;2.83;2.60;;;;;;;20.27;46.15;100241.61;;;;-52
2020/12/02 15:55:26;;;;;;;3.43;2.79;;;;;;;20.29;46.09;100240.63;;;;-51
2020/12/02 15:58:26;;;;;;;3.00;2.69;;;;;;;20.28;46.06;100237.45;;;;-52
2020/12/02 16:01:26;;;;;;;2.88;2.65;;;;;;;20.28;46.06;100239.25;;;;-59
2020/12/02 16:04:26;;;;;;;9.07;3.01;;;;;;;20.29;46.08;100243.31;;;;-59
2020/12/02 16:07:26;;;;;;;6.35;3.01;;;;;;;20.29;46.23;100244.80;;;;-59
2020/12/02 16:10:26;;;;;;;9.75;3.30;;;;;;;20.27;46.21;100245.10;;;;-60
2020/12/02 16:13:26;;;;;;;6.49;3.01;;;;;;;20.26;46.09;100248.52;;;;-60
2020/12/02 16:16:26;;;;;;;4.95;2.97;;;;;;;20.26;46.09;100250.73;;;;-52
2020/12/02 16:19:26;;;;;;;4.91;3.03;;;;;;;20.26;46.22;100250.08;;;;-52
2020/12/02 16:22:26;;;;;;;3.21;2.68;;;;;;;20.25;46.10;100243.72;;;;-59
2020/12/02 16:25:26;;;;;;;3.64;2.91;;;;;;;20.27;46.07;100243.82;;;;-57
2020/12/02 16:28:26;;;;;;;4.19;2.79;;;;;;;20.30;46.19;100238.11;;;;-56
2020/12/02 16:31:26;;;;;;;3.18;2.78;;;;;;;20.32;46.24;100241.45;;;;-57
2020/12/02 16:34:26;;;;;;;5.13;2.98;;;;;;;20.33;46.18;100233.30;;;;-57
2020/12/02 16:37:26;;;;;;;3.50;2.87;;;;;;;20.35;46.27;100227.11;;;;-54
2020/12/02 16:40:26;;;;;;;5.24;2.89;;;;;;;20.36;46.16;100226.80;;;;-54
2020/12/02 16:43:26;;;;;;;6.93;3.00;;;;;;;20.39;46.32;100226.70;;;;-54
2020/12/02 16:46:26;;;;;;;5.59;2.93;;;;;;;20.38;46.37;100227.12;;;;-51
2020/12/02 16:49:26;;;;;;;4.25;2.80;;;;;;;20.41;46.43;100224.66;;;;-52
2020/12/02 16:52:26;;;;;;;3.56;2.87;;;;;;;20.44;46.42;100226.14;;;;-54
2020/12/02 16:56:26;;;;;;;4.61;2.79;;;;;;;20.45;46.52;100229.72;;;;-54
2020/12/02 16:59:26;;;;;;;3.47;2.87;;;;;;;20.46;46.49;100227.03;;;;-56
2020/12/02 17:02:26;;;;;;;3.22;2.89;;;;;;;20.47;46.55;100230.92;;;;-53
2020/12/02 17:05:26;;;;;;;3.87;2.78;;;;;;;20.47;46.63;100229.22;;;;-51